Pagina principale
METAR-TAF:

METAR-TAF

Aeroporti :

Ermelo, Sudafrica

latitudine: 26-29-44S, longitudine: 29-58-47E, altezza: 1737 m

Osservazione

Il bollettino è stato emesso 6 ore e 10 minuti fa, alle 10:18 UTC
Vento 12 kt da est/nord-est
Temperature 21°C
Umidità 73%
Pressione 1020 hPa
Visibilità 10 km o più
Poco nuvoloso ad un'altezza di 2000 ft
Poco nuvoloso ad un'altezza di 4000 ft, Cumulonembo.
Nuvoloso ad un'altezza di 7000 ft
temporale

METAR: FAEO 201018Z 06012KT 9999 TS FEW020 FEW040CB BKN070 21/16 Q1020

Ora: 18:28 (16:28 UTC)


TAF: mancante

Osservazioni e previsioni meteorologiche di più di 4000 aeroporti (messaggi METAR e TAF).

Le stazioni disponibili sono rappresentate dai dischi gialli e rossi sulla carta.

Puntare il mouse per vedere il nome della stazione.

Clicca sopra per visualizzare le osservazioni e previsioni meteorologiche.

Per cambiare la mappa : fare clic sui pulsanti verdi con una croce nera per ingrandire, il pulsante verde con un trattino per diminuire, o sulla freccia verde per le mappe adiacenti.


METAR-TAF: